createdAt,value
2017-05-28T00:00:11.544Z,20.5
2017-05-28T00:01:14.377Z,20.6
2017-05-28T00:02:16.912Z,20.5
2017-05-28T00:03:19.501Z,20.5
2017-05-28T00:04:22.949Z,20.4
2017-05-28T00:05:25.556Z,20.3
2017-05-28T00:06:28.187Z,20.3
2017-05-28T00:07:30.786Z,20.3
2017-05-28T00:08:33.924Z,20.3
2017-05-28T00:09:36.507Z,20.4
2017-05-28T00:10:39.413Z,20.4
2017-05-28T00:11:42.052Z,20.3
2017-05-28T00:12:44.537Z,20
2017-05-28T00:13:47.045Z,19.7
2017-05-28T00:14:49.497Z,19.5
2017-05-28T00:15:52.004Z,19.5
2017-05-28T00:16:54.605Z,19.5
2017-05-28T00:17:57.041Z,19.3
2017-05-28T00:18:59.607Z,19.5
2017-05-28T00:20:02.255Z,19.3
2017-05-28T00:21:08.424Z,19.4
2017-05-28T00:22:11.026Z,19.4
2017-05-28T00:23:13.472Z,19.4
2017-05-28T00:24:16.747Z,19.3
2017-05-28T00:25:19.314Z,19.2
2017-05-28T00:26:21.926Z,19.2
2017-05-28T00:27:25.181Z,19.2
2017-05-28T00:28:27.780Z,19.1
2017-05-28T00:29:30.297Z,18.9
2017-05-28T00:30:32.855Z,18.7
2017-05-28T00:31:35.315Z,18.5
2017-05-28T00:32:37.867Z,18.4
2017-05-28T00:33:40.396Z,18.4
2017-05-28T00:34:43.630Z,18.7
2017-05-28T00:35:46.143Z,18.5
2017-05-28T00:36:48.676Z,18.4
2017-05-28T00:37:51.273Z,18.3
2017-05-28T00:38:53.773Z,18.6
2017-05-28T00:39:56.293Z,18.5
2017-05-28T00:40:58.810Z,18.4
2017-05-28T00:42:01.390Z,18.3
2017-05-28T00:43:04.206Z,18.3
2017-05-28T00:44:06.801Z,18.4
2017-05-28T00:45:10.347Z,18.2
2017-05-28T00:46:12.951Z,18.3
2017-05-28T00:47:15.527Z,18.3
2017-05-28T00:48:18.088Z,18.3
2017-05-28T00:49:21.723Z,18.3
2017-05-28T00:50:25.937Z,18.2
2017-05-28T00:51:28.493Z,18.1
2017-05-28T00:52:31.036Z,18.1
2017-05-28T00:53:33.532Z,18.3
2017-05-28T00:54:36.093Z,18.1
2017-05-28T00:55:38.741Z,18.2
2017-05-28T00:56:41.279Z,18.3
2017-05-28T00:57:43.757Z,18.1
2017-05-28T00:58:46.207Z,18
2017-05-28T00:59:48.704Z,18
2017-05-28T01:00:51.246Z,18.2
2017-05-28T01:01:53.875Z,18
2017-05-28T01:02:56.361Z,18
2017-05-28T01:03:58.840Z,18.1
2017-05-28T01:05:01.452Z,18.1
2017-05-28T01:06:06.246Z,18.1
2017-05-28T01:07:08.727Z,18.1
2017-05-28T01:08:11.358Z,18
2017-05-28T01:09:14.008Z,17.8
2017-05-28T01:10:17.357Z,17.6
2017-05-28T01:11:20.659Z,17.6
2017-05-28T01:12:23.381Z,17.6
2017-05-28T01:13:27.181Z,17.6
2017-05-28T01:14:29.933Z,17.7
2017-05-28T01:15:32.569Z,17.8
2017-05-28T01:16:35.339Z,17.6
2017-05-28T01:17:38.084Z,17.4
2017-05-28T01:18:40.618Z,17.5
2017-05-28T01:19:43.062Z,17.5
2017-05-28T01:20:45.523Z,17.5
2017-05-28T01:21:47.968Z,17.6
2017-05-28T01:22:50.464Z,17.4
2017-05-28T01:23:52.943Z,17.3
2017-05-28T01:24:55.450Z,17.5
2017-05-28T01:25:57.910Z,17.5
2017-05-28T01:27:00.362Z,17.5
2017-05-28T01:28:02.925Z,17.2
2017-05-28T01:29:05.470Z,17.3
2017-05-28T01:30:08.074Z,17.4
2017-05-28T01:31:10.692Z,17.2
2017-05-28T01:32:13.212Z,17.2
2017-05-28T01:33:15.824Z,17.2
2017-05-28T01:34:18.361Z,17.2
2017-05-28T01:35:21.628Z,17.2
2017-05-28T01:36:24.153Z,17
2017-05-28T01:37:26.605Z,17
2017-05-28T01:38:29.245Z,16.7
2017-05-28T01:39:31.820Z,16.7
2017-05-28T01:40:34.368Z,17
2017-05-28T01:41:36.816Z,17
2017-05-28T01:42:39.265Z,17
2017-05-28T01:43:41.760Z,17
2017-05-28T01:44:44.214Z,17.2
2017-05-28T01:45:46.659Z,16.9
2017-05-28T01:46:49.145Z,16.9
2017-05-28T01:47:51.594Z,16.8
2017-05-28T01:48:54.139Z,16.8
2017-05-28T01:49:56.636Z,16.8
2017-05-28T01:50:59.112Z,16.9
2017-05-28T01:52:01.625Z,17.1
2017-05-28T01:53:04.117Z,16.6
2017-05-28T01:54:06.572Z,16.6
2017-05-28T01:55:09.094Z,16.7
2017-05-28T01:56:12.245Z,16.7
2017-05-28T01:57:14.725Z,16.6
2017-05-28T01:58:17.305Z,16.7
2017-05-28T01:59:19.914Z,16.5
2017-05-28T02:00:22.588Z,16.6
2017-05-28T02:01:25.183Z,16.4
2017-05-28T02:02:27.718Z,16.5
2017-05-28T02:03:30.210Z,16.5
2017-05-28T02:04:32.745Z,16.5
2017-05-28T02:05:35.277Z,16.4
2017-05-28T02:06:37.937Z,16.4
2017-05-28T02:07:40.408Z,16.4
2017-05-28T02:08:43.150Z,16.7
2017-05-28T02:09:45.635Z,16.9
2017-05-28T02:10:48.028Z,17
2017-05-28T02:11:50.527Z,17.1
2017-05-28T02:12:53.046Z,16.9
2017-05-28T02:13:55.521Z,16.9
2017-05-28T02:14:57.954Z,17
2017-05-28T02:16:00.415Z,17
2017-05-28T02:17:02.928Z,17
2017-05-28T02:18:05.785Z,16.9
2017-05-28T02:19:08.430Z,16.9
2017-05-28T02:20:14.377Z,16.6
2017-05-28T02:21:17.592Z,16.7
2017-05-28T02:22:20.079Z,16.8
2017-05-28T02:23:22.700Z,16.7
2017-05-28T02:24:25.204Z,16.7
2017-05-28T02:25:27.747Z,16.4
2017-05-28T02:26:30.217Z,16.6
2017-05-28T02:27:32.672Z,16.6
2017-05-28T02:28:35.116Z,16.1
2017-05-28T02:29:38.265Z,16.2
2017-05-28T02:30:40.765Z,15.9
2017-05-28T02:31:43.326Z,16
2017-05-28T02:32:45.790Z,16
2017-05-28T02:33:48.269Z,15.9
2017-05-28T02:34:50.751Z,16.1
2017-05-28T02:35:53.321Z,16.3
2017-05-28T02:36:55.836Z,16.1
2017-05-28T02:37:58.271Z,16
2017-05-28T02:39:00.710Z,15.9
2017-05-28T02:40:05.557Z,16
2017-05-28T02:41:08.280Z,16.1
2017-05-28T02:42:10.729Z,16
2017-05-28T02:43:13.230Z,16.1
2017-05-28T02:44:16.530Z,16.2
2017-05-28T02:45:19.015Z,16.1
2017-05-28T02:46:21.564Z,16.1
2017-05-28T02:47:24.730Z,15.9
2017-05-28T02:48:27.235Z,16
2017-05-28T02:49:30.194Z,16.1
2017-05-28T02:50:32.703Z,16.2
2017-05-28T02:51:35.215Z,16.1
2017-05-28T02:52:37.660Z,16.3
2017-05-28T02:53:40.086Z,16.3
2017-05-28T02:54:42.645Z,16.2
2017-05-28T02:55:45.108Z,15.9
2017-05-28T02:56:47.600Z,16.1
2017-05-28T02:57:50.069Z,16
2017-05-28T02:58:53.324Z,15.9
2017-05-28T02:59:55.814Z,16
2017-05-28T03:00:58.332Z,15.9
2017-05-28T03:02:00.759Z,15.8
2017-05-28T03:03:03.265Z,15.8
2017-05-28T03:04:05.860Z,15.7
2017-05-28T03:05:08.334Z,15.8
2017-05-28T03:06:10.899Z,15.9
2017-05-28T03:07:13.475Z,16
2017-05-28T03:08:15.980Z,15.9
2017-05-28T03:09:18.520Z,16.1
2017-05-28T03:10:21.247Z,16.4
2017-05-28T03:11:23.783Z,16.5
2017-05-28T03:12:26.293Z,16.4
2017-05-28T03:13:28.776Z,16.3
2017-05-28T03:14:31.243Z,16.4
2017-05-28T03:15:33.708Z,16.4
2017-05-28T03:16:36.170Z,16.2
2017-05-28T03:17:38.616Z,16.1
2017-05-28T03:18:41.063Z,16.2
2017-05-28T03:19:43.493Z,15.9
2017-05-28T03:20:46.649Z,15.4
2017-05-28T03:21:49.563Z,15.8
2017-05-28T03:22:52.031Z,15.9
2017-05-28T03:23:54.449Z,15.8
2017-05-28T03:24:56.876Z,15.5
2017-05-28T03:25:59.393Z,15.6
2017-05-28T03:27:01.923Z,15.6
2017-05-28T03:28:08.360Z,15.4
2017-05-28T03:29:10.910Z,15.8
2017-05-28T03:30:13.436Z,15.9
2017-05-28T03:31:16.530Z,16
2017-05-28T03:32:19.043Z,16
2017-05-28T03:33:21.597Z,15.9
2017-05-28T03:34:24.065Z,16.1
2017-05-28T03:35:27.372Z,15.9
2017-05-28T03:36:29.874Z,16.1
2017-05-28T03:37:32.341Z,16.1
2017-05-28T03:38:34.775Z,16.1
2017-05-28T03:39:37.328Z,15.8
2017-05-28T03:40:39.920Z,15.6
2017-05-28T03:41:42.598Z,15.7
2017-05-28T03:42:45.079Z,15.6
2017-05-28T03:43:47.602Z,16
2017-05-28T03:44:50.058Z,16.1
2017-05-28T03:45:52.493Z,15.9
2017-05-28T03:46:55.139Z,16
2017-05-28T03:47:57.810Z,16.1
2017-05-28T03:49:00.270Z,16.1
2017-05-28T03:50:04.317Z,16.1
2017-05-28T03:51:06.814Z,15.9
2017-05-28T03:52:09.278Z,15.5
2017-05-28T03:53:11.809Z,15.7
2017-05-28T03:54:14.931Z,15.8
2017-05-28T03:55:17.481Z,15.6
2017-05-28T03:56:19.955Z,15.7
2017-05-28T03:57:22.511Z,15.7
2017-05-28T03:58:25.094Z,15.6
2017-05-28T03:59:27.673Z,15.7
2017-05-28T04:00:30.262Z,15.9
2017-05-28T04:01:33.370Z,16.1
2017-05-28T04:02:35.797Z,15.9
2017-05-28T04:03:38.257Z,15.9
2017-05-28T04:04:40.718Z,15.9
2017-05-28T04:05:43.153Z,15.9
2017-05-28T04:06:46.010Z,15.8
2017-05-28T04:07:48.449Z,16.1
2017-05-28T04:08:50.924Z,16
2017-05-28T04:09:53.400Z,16.3
2017-05-28T04:10:55.865Z,16.1
2017-05-28T04:11:58.331Z,16.3
2017-05-28T04:13:00.831Z,16.1
2017-05-28T04:14:03.357Z,16.3
2017-05-28T04:15:06.195Z,16.4
2017-05-28T04:16:08.647Z,16.4
2017-05-28T04:17:11.174Z,16.3
2017-05-28T04:18:13.686Z,16.4
2017-05-28T04:19:16.229Z,16.6
2017-05-28T04:20:19.468Z,16.7
2017-05-28T04:21:22.002Z,16.7
2017-05-28T04:22:24.620Z,16.9
2017-05-28T04:23:27.165Z,16.9
2017-05-28T04:24:29.689Z,16.6
2017-05-28T04:25:32.349Z,16.6
2017-05-28T04:26:34.890Z,16.7
2017-05-28T04:27:38.177Z,16.8
2017-05-28T04:28:40.732Z,17
2017-05-28T04:29:43.375Z,17
2017-05-28T04:30:45.900Z,17.1
2017-05-28T04:31:49.135Z,17.2
2017-05-28T04:32:51.594Z,17.2
2017-05-28T04:33:54.120Z,17.2
2017-05-28T04:34:56.633Z,17.2
2017-05-28T04:35:59.100Z,17.1
2017-05-28T04:37:01.705Z,17.2
2017-05-28T04:38:04.157Z,17.3
2017-05-28T04:39:06.674Z,17.2
2017-05-28T04:40:09.144Z,17.2
2017-05-28T04:41:12.103Z,17.4
2017-05-28T04:42:15.341Z,17.4
2017-05-28T04:43:17.872Z,17.4
2017-05-28T04:44:20.371Z,17.5
2017-05-28T04:45:22.910Z,17.4
2017-05-28T04:46:25.612Z,17.6
2017-05-28T04:47:28.176Z,17.7
2017-05-28T04:48:30.697Z,17.7
2017-05-28T04:49:33.280Z,17.9
2017-05-28T04:50:35.918Z,17.7
2017-05-28T04:51:38.381Z,18.1
2017-05-28T04:52:40.806Z,18.3
2017-05-28T04:53:43.215Z,18.3
2017-05-28T04:54:45.701Z,18.3
2017-05-28T04:55:48.117Z,18.3
2017-05-28T04:56:51.786Z,18.3
2017-05-28T04:57:54.232Z,18.4
2017-05-28T04:58:56.670Z,18.4
2017-05-28T04:59:59.130Z,18.5
2017-05-28T05:01:01.594Z,18.6
2017-05-28T05:02:07.439Z,18.7
2017-05-28T05:03:11.368Z,18.9
2017-05-28T05:04:13.834Z,18.8
2017-05-28T05:05:16.895Z,18.9
2017-05-28T05:06:19.446Z,18.9
2017-05-28T05:07:21.999Z,19.1
2017-05-28T05:08:24.715Z,19.2
2017-05-28T05:09:27.224Z,19.3
2017-05-28T05:10:29.889Z,19.4
2017-05-28T05:11:32.490Z,19.5
2017-05-28T05:12:34.947Z,19.6
2017-05-28T05:13:37.387Z,19.7
2017-05-28T05:14:39.845Z,19.6
2017-05-28T05:15:42.356Z,19.8
2017-05-28T05:16:44.809Z,19.8
2017-05-28T05:17:47.235Z,19.6
2017-05-28T05:18:49.687Z,19.8
2017-05-28T05:19:52.196Z,19.7
2017-05-28T05:20:54.755Z,19.8
2017-05-28T05:21:57.913Z,19.7
2017-05-28T05:23:00.357Z,20
2017-05-28T05:24:02.962Z,20
2017-05-28T05:25:05.983Z,20
2017-05-28T05:26:09.956Z,20.2
2017-05-28T05:27:12.441Z,20.4
2017-05-28T05:28:14.850Z,20.7
2017-05-28T05:29:17.432Z,21.2
2017-05-28T05:30:20.109Z,20.9
2017-05-28T05:31:22.632Z,21.2
2017-05-28T05:32:25.072Z,21.3
2017-05-28T05:33:27.631Z,21.4
2017-05-28T05:34:30.200Z,21.8
2017-05-28T05:35:32.749Z,21.6
2017-05-28T05:36:35.195Z,21.7
2017-05-28T05:37:37.606Z,21.6
2017-05-28T05:38:40.658Z,21.7
2017-05-28T05:39:43.168Z,21.6
2017-05-28T05:40:45.592Z,21.7
2017-05-28T05:41:48.141Z,21.7
2017-05-28T05:42:51.726Z,21.7
2017-05-28T05:43:54.579Z,21.8
2017-05-28T05:44:57.008Z,22
2017-05-28T05:45:59.462Z,22
2017-05-28T05:47:02.040Z,22.3
2017-05-28T05:48:04.713Z,22.3
2017-05-28T05:49:07.370Z,22.4
2017-05-28T05:50:11.103Z,22.4
2017-05-28T05:51:14.126Z,22.7
2017-05-28T05:52:16.697Z,23
2017-05-28T05:53:19.225Z,22.8
2017-05-28T05:54:23.412Z,23.2
2017-05-28T05:55:26.200Z,23.5
2017-05-28T05:56:29.707Z,23.3
2017-05-28T05:57:32.338Z,23.6
2017-05-28T05:58:34.810Z,24.2
2017-05-28T05:59:37.597Z,24.4
2017-05-28T06:00:40.256Z,24.3
2017-05-28T06:01:42.815Z,24.5
2017-05-28T06:02:47.557Z,24.4
2017-05-28T06:03:49.969Z,24.5
2017-05-28T06:04:52.449Z,24.5
2017-05-28T06:05:54.878Z,24.6
2017-05-28T06:06:57.331Z,24.8
2017-05-28T06:07:59.789Z,25.1
2017-05-28T06:09:02.361Z,25.6
2017-05-28T06:10:08.099Z,25.8
2017-05-28T06:11:12.172Z,25.4
2017-05-28T06:12:14.649Z,25.1
2017-05-28T06:13:17.193Z,25.4
2017-05-28T06:14:19.694Z,25.1
2017-05-28T06:15:22.743Z,25.3
2017-05-28T06:16:25.268Z,25.2
2017-05-28T06:17:27.829Z,25.5
2017-05-28T06:18:30.463Z,25.5
2017-05-28T06:19:33.037Z,25.7
2017-05-28T06:20:37.536Z,25.7
2017-05-28T06:21:40.103Z,26
2017-05-28T06:22:42.616Z,26
2017-05-28T06:23:45.073Z,26.5
2017-05-28T06:24:47.604Z,26.4
2017-05-28T06:25:50.095Z,26.4
2017-05-28T06:26:52.712Z,26.9
2017-05-28T06:27:56.160Z,26.9
2017-05-28T06:28:58.622Z,26.6
2017-05-28T06:30:01.178Z,26.7
2017-05-28T06:31:08.322Z,27
2017-05-28T06:32:10.839Z,28.5
2017-05-28T06:33:13.415Z,29.5
2017-05-28T06:34:17.974Z,29.5
2017-05-28T06:35:20.463Z,29
2017-05-28T06:36:22.921Z,29.3
2017-05-28T06:37:25.402Z,28.5
2017-05-28T06:38:27.988Z,28.7
2017-05-28T06:39:30.515Z,28.7
2017-05-28T06:40:33.080Z,29.5
2017-05-28T06:41:35.579Z,29.8
2017-05-28T06:42:38.823Z,29.9
2017-05-28T06:43:41.197Z,30
2017-05-28T06:44:43.715Z,30.1
2017-05-28T06:45:46.183Z,30.2
2017-05-28T06:46:48.693Z,30
2017-05-28T06:47:51.137Z,30.1
2017-05-28T06:48:53.613Z,31
2017-05-28T06:49:56.689Z,30.7
2017-05-28T06:50:59.168Z,29.8
2017-05-28T06:52:01.795Z,30
2017-05-28T06:53:06.782Z,30.1
2017-05-28T06:54:09.242Z,31
2017-05-28T06:55:11.919Z,30.4
2017-05-28T06:56:14.897Z,30.1
2017-05-28T06:57:17.758Z,30.5
2017-05-28T06:58:20.368Z,31.7
2017-05-28T06:59:23.065Z,31.3
2017-05-28T07:00:25.646Z,31.4
2017-05-28T07:01:28.898Z,31
2017-05-28T07:02:32.356Z,30.3
2017-05-28T07:03:34.821Z,30.7
2017-05-28T07:04:37.291Z,30.9
2017-05-28T07:05:40.049Z,30.9
2017-05-28T07:06:42.610Z,31.4
2017-05-28T07:07:45.132Z,31.7
2017-05-28T07:08:47.760Z,31.9
2017-05-28T07:09:50.295Z,31.9
2017-05-28T07:10:53.405Z,32.2
2017-05-28T07:11:55.874Z,32.5
2017-05-28T07:12:58.327Z,32.1
2017-05-28T07:14:01.087Z,32.8
2017-05-28T07:15:06.440Z,33.3
2017-05-28T07:16:12.571Z,33.2
2017-05-28T07:17:15.220Z,32.6
2017-05-28T07:18:18.081Z,32.9
2017-05-28T07:19:21.217Z,32.3
2017-05-28T07:20:23.899Z,31.8
2017-05-28T07:21:26.461Z,31.6
2017-05-28T07:22:29.536Z,30.9
2017-05-28T07:23:32.102Z,30.5
2017-05-28T07:24:34.661Z,29.7
2017-05-28T07:25:37.206Z,29.1
2017-05-28T07:26:40.307Z,29
2017-05-28T07:27:42.897Z,29.1
2017-05-28T07:28:46.502Z,29.1
2017-05-28T07:29:49.146Z,28.9
2017-05-28T07:30:51.776Z,29.1
2017-05-28T07:31:54.304Z,28.9
2017-05-28T07:32:57.552Z,28.9
2017-05-28T07:34:00.709Z,28.9
2017-05-28T07:35:08.241Z,29.4
2017-05-28T07:36:13.098Z,29.5
2017-05-28T07:37:16.329Z,29.5
2017-05-28T07:38:18.899Z,28.7
2017-05-28T07:39:21.555Z,28.9
2017-05-28T07:40:24.250Z,28.8
2017-05-28T07:41:26.728Z,29
2017-05-28T07:42:29.250Z,28.8
2017-05-28T07:43:31.946Z,28.5
2017-05-28T07:44:38.346Z,28.5
2017-05-28T07:45:41.401Z,28.5
2017-05-28T07:46:44.190Z,28.8
2017-05-28T07:47:46.764Z,28.9
2017-05-28T07:48:49.272Z,28.6
2017-05-28T07:49:51.833Z,28.8
2017-05-28T07:50:55.192Z,28.5
2017-05-28T07:51:58.789Z,28.5
2017-05-28T07:53:01.346Z,28.9
2017-05-28T07:54:05.338Z,29.7
2017-05-28T07:55:11.288Z,29.6
2017-05-28T07:56:15.348Z,29.6
2017-05-28T07:57:18.406Z,29.7
2017-05-28T07:58:21.038Z,30.1
2017-05-28T07:59:24.392Z,30.6
2017-05-28T08:00:28.201Z,31.4
2017-05-28T08:01:32.046Z,31.8
2017-05-28T08:02:35.304Z,32.3
2017-05-28T08:03:39.697Z,32.7
2017-05-28T08:04:42.361Z,32.9
2017-05-28T08:05:45.246Z,33.5
2017-05-28T08:06:47.955Z,33.8
2017-05-28T08:07:50.489Z,33.9
2017-05-28T08:08:53.206Z,34.4
2017-05-28T08:09:55.763Z,34.7
2017-05-28T08:10:59.261Z,35.1
2017-05-28T08:13:10.465Z,35.8
2017-05-28T08:14:13.015Z,35.8
2017-05-28T08:15:15.799Z,35.2
2017-05-28T08:16:19.864Z,35.4
2017-05-28T08:17:22.439Z,36
2017-05-28T08:18:25.095Z,36.1
2017-05-28T08:19:28.385Z,35.7
2017-05-28T08:20:31.001Z,35.6
2017-05-28T08:21:34.104Z,35.7
2017-05-28T08:22:36.820Z,35.4
2017-05-28T08:23:39.879Z,35.1
2017-05-28T08:24:42.486Z,35.4
2017-05-28T08:25:45.061Z,35.9
2017-05-28T08:26:48.147Z,35.5
2017-05-28T08:27:50.705Z,34.8
2017-05-28T08:28:53.265Z,35.8
2017-05-28T08:29:55.888Z,35.7
2017-05-28T08:30:59.379Z,35.8
2017-05-28T08:32:03.396Z,36.3
2017-05-28T08:33:07.399Z,36.6
2017-05-28T08:34:09.912Z,36.5
2017-05-28T08:35:13.310Z,36.1
2017-05-28T08:36:16.752Z,36
2017-05-28T08:37:19.482Z,36.1
2017-05-28T08:38:22.287Z,37.3
2017-05-28T08:39:26.378Z,37.2
2017-05-28T08:40:29.087Z,37.2
2017-05-28T08:41:31.874Z,36.4
2017-05-28T08:42:35.285Z,36.5
2017-05-28T08:43:39.634Z,36.7
2017-05-28T08:44:44.864Z,37.5
2017-05-28T08:45:48.229Z,36.8
2017-05-28T08:46:52.801Z,36.8
2017-05-28T08:47:55.948Z,36.2
2017-05-28T08:48:58.585Z,37.1
2017-05-28T08:50:01.199Z,38.4
2017-05-28T08:51:07.393Z,38.7
2017-05-28T08:52:10.074Z,37.9
2017-05-28T08:53:13.797Z,38.3
2017-05-28T08:54:16.479Z,38.4
2017-05-28T08:55:20.026Z,38
2017-05-28T08:56:22.701Z,38.4
2017-05-28T08:57:26.235Z,39.4
2017-05-28T08:58:28.964Z,38.6
2017-05-28T08:59:32.237Z,38.8
2017-05-28T09:00:35.973Z,36.6
2017-05-28T09:01:39.609Z,35.9
2017-05-28T09:02:43.377Z,36.6
2017-05-28T09:03:47.054Z,37.1
2017-05-28T09:04:50.132Z,37.1
2017-05-28T09:05:52.680Z,37.8
2017-05-28T09:06:55.703Z,37.8
2017-05-28T09:07:58.319Z,38.5
2017-05-28T09:09:00.896Z,38.7
2017-05-28T09:10:10.415Z,38.9
2017-05-28T09:11:14.548Z,38.9
2017-05-28T09:12:18.037Z,38.7
2017-05-28T09:13:20.863Z,38
2017-05-28T09:14:23.464Z,37.8
2017-05-28T09:15:26.750Z,36.9
2017-05-28T09:16:30.701Z,36.8
2017-05-28T09:17:34.115Z,37.5
2017-05-28T09:18:36.757Z,38.8
2017-05-28T09:19:41.489Z,38.4
2017-05-28T09:20:44.723Z,38.2
2017-05-28T09:21:47.391Z,36.1
2017-05-28T09:22:50.067Z,35
2017-05-28T09:23:52.802Z,35.9
2017-05-28T09:24:55.431Z,35.7
2017-05-28T09:26:00.744Z,35.5
2017-05-28T09:27:06.912Z,35.9
2017-05-28T09:28:09.789Z,37.5
2017-05-28T09:29:12.563Z,37.4
2017-05-28T09:30:17.239Z,37.3
2017-05-28T09:31:19.962Z,37.6
2017-05-28T09:32:22.853Z,37.4
2017-05-28T09:33:26.237Z,37.1
2017-05-28T09:34:31.625Z,37
2017-05-28T09:35:35.253Z,36.7
2017-05-28T09:36:40.986Z,36.2
2017-05-28T09:37:45.614Z,35.1
2017-05-28T09:38:49.004Z,36.2
2017-05-28T09:39:51.661Z,36.8
2017-05-28T09:40:54.282Z,37.2
2017-05-28T09:41:56.889Z,37.5
2017-05-28T09:42:59.593Z,37.6
2017-05-28T09:44:02.365Z,36.6
2017-05-28T09:45:10.345Z,36
2017-05-28T09:46:13.736Z,36.7
2017-05-28T09:47:18.483Z,37.1
2017-05-28T09:48:21.352Z,37.9
2017-05-28T09:49:25.471Z,37.9
2017-05-28T09:50:28.102Z,38.2
2017-05-28T09:51:32.858Z,38.7
2017-05-28T09:52:35.598Z,38.2
2017-05-28T09:53:38.823Z,37.5
2017-05-28T09:54:41.451Z,37
2017-05-28T09:55:44.149Z,36.9
2017-05-28T09:56:46.841Z,34.8
2017-05-28T09:57:49.444Z,34.5
2017-05-28T09:58:52.079Z,34.3
2017-05-28T09:59:54.740Z,35.6
2017-05-28T10:00:57.347Z,36
2017-05-28T10:02:02.003Z,36
2017-05-28T10:03:06.275Z,35.9
2017-05-28T10:04:08.887Z,35.9
2017-05-28T10:05:16.135Z,36.4
2017-05-28T10:06:18.825Z,35.5
2017-05-28T10:07:21.482Z,34.8
2017-05-28T10:08:24.876Z,34
2017-05-28T10:09:27.496Z,33.7
2017-05-28T10:10:30.192Z,34.2
2017-05-28T10:11:32.865Z,33.5
2017-05-28T10:12:35.638Z,34.6
2017-05-28T10:13:38.478Z,34.2
2017-05-28T10:14:41.042Z,33.5
2017-05-28T10:15:43.919Z,33.5
2017-05-28T10:16:47.189Z,33.3
2017-05-28T10:17:49.812Z,33.2
2017-05-28T10:18:52.878Z,32.1
2017-05-28T10:19:55.522Z,33
2017-05-28T10:20:59.015Z,33.1
2017-05-28T10:22:01.614Z,33.2
2017-05-28T10:23:05.401Z,33
2017-05-28T10:24:08.715Z,33.5
2017-05-28T10:25:12.245Z,34.3
2017-05-28T10:26:15.546Z,34.1
2017-05-28T10:27:18.300Z,34.1
2017-05-28T10:28:21.015Z,33.2
2017-05-28T10:29:23.999Z,32.9
2017-05-28T10:30:27.184Z,33.8
2017-05-28T10:31:29.812Z,33.5
2017-05-28T10:32:35.195Z,32.4
2017-05-28T10:33:43.298Z,32
2017-05-28T10:34:46.410Z,31.4
2017-05-28T10:35:50.987Z,30
2017-05-28T10:36:53.733Z,31.7
2017-05-28T10:37:56.428Z,32.4
2017-05-28T10:38:59.030Z,33.1
2017-05-28T10:40:01.847Z,33.3
2017-05-28T10:41:12.946Z,33.7
2017-05-28T10:42:16.709Z,33.8
2017-05-28T10:43:19.987Z,32.8
2017-05-28T10:44:23.729Z,33.3
2017-05-28T10:45:27.550Z,33.8
2017-05-28T10:46:33.366Z,34
2017-05-28T10:47:36.186Z,34
2017-05-28T10:48:39.710Z,33.7
2017-05-28T10:49:42.676Z,32.8
2017-05-28T10:50:48.279Z,32.7
2017-05-28T10:51:52.613Z,32.6
2017-05-28T10:52:55.344Z,32.9
2017-05-28T10:53:58.017Z,32.2
2017-05-28T10:55:01.344Z,31.2
2017-05-28T10:56:07.435Z,30.1
2017-05-28T10:57:10.041Z,31
2017-05-28T10:58:12.788Z,32
2017-05-28T10:59:17.529Z,32.2
2017-05-28T11:00:21.105Z,31.1
2017-05-28T11:01:25.426Z,31.7
2017-05-28T11:02:29.782Z,32
2017-05-28T11:03:32.714Z,32.3
2017-05-28T11:04:35.438Z,32
2017-05-28T11:05:38.931Z,31.7
2017-05-28T11:06:41.685Z,32.5
2017-05-28T11:07:44.353Z,33
2017-05-28T11:08:47.169Z,32.7
2017-05-28T11:09:49.832Z,32.9
2017-05-28T11:10:53.581Z,33
2017-05-28T11:11:56.578Z,33.2
2017-05-28T11:12:59.700Z,33.4
2017-05-28T11:14:02.340Z,33.2
2017-05-28T11:15:07.206Z,33.2
2017-05-28T11:16:13.412Z,32.9
2017-05-28T11:17:16.626Z,32.7
2017-05-28T11:18:20.020Z,32.6
2017-05-28T11:19:24.078Z,32.6
2017-05-28T11:20:27.768Z,32.9
2017-05-28T11:21:31.079Z,32.6
2017-05-28T11:22:34.520Z,33
2017-05-28T11:23:37.750Z,33.1
2017-05-28T11:24:40.387Z,32.9
2017-05-28T11:25:43.564Z,33.2
2017-05-28T11:26:47.317Z,33.3
2017-05-28T11:27:51.522Z,33.2
2017-05-28T11:28:54.367Z,33
2017-05-28T11:29:57.097Z,33
2017-05-28T11:30:59.850Z,32.6
2017-05-28T11:32:02.597Z,32.7
2017-05-28T11:33:10.668Z,33.5
2017-05-28T11:34:13.545Z,33.7
2017-05-28T11:35:19.708Z,33.7
2017-05-28T11:36:22.500Z,33.5
2017-05-28T11:37:25.982Z,33.1
2017-05-28T11:38:28.865Z,32.6
2017-05-28T11:39:32.970Z,32.2
2017-05-28T11:40:38.049Z,32.5
2017-05-28T11:41:43.093Z,32.3
2017-05-28T11:42:45.839Z,32.7
2017-05-28T11:43:49.505Z,32.6
2017-05-28T11:44:52.193Z,32.2
2017-05-28T11:45:54.884Z,31.6
2017-05-28T11:46:57.507Z,32.4
2017-05-28T11:48:00.199Z,32.4
2017-05-28T11:49:02.989Z,32.5
2017-05-28T11:50:07.393Z,32.7
2017-05-28T11:51:11.226Z,32.7
2017-05-28T11:52:14.707Z,31.9
2017-05-28T11:53:18.159Z,31.8
2017-05-28T11:54:21.570Z,31
2017-05-28T11:55:24.527Z,30.4
2017-05-28T11:56:27.293Z,30.6
2017-05-28T11:57:30.054Z,31.4
2017-05-28T11:58:33.035Z,31.9
2017-05-28T11:59:35.874Z,31.5
2017-05-28T12:00:38.604Z,31
2017-05-28T12:01:41.307Z,30.3
2017-05-28T12:02:45.140Z,30.7
2017-05-28T12:03:47.749Z,30.7
2017-05-28T12:04:50.509Z,31
2017-05-28T12:05:53.171Z,31.1
2017-05-28T12:06:56.380Z,31.2
2017-05-28T12:07:58.977Z,31.1
2017-05-28T12:10:16.298Z,30.9
2017-05-28T12:11:21.444Z,30.9
2017-05-28T12:12:24.251Z,31
2017-05-28T12:13:26.996Z,30.8
2017-05-28T12:14:31.637Z,30.7
2017-05-28T12:15:35.205Z,30.4
2017-05-28T12:16:43.439Z,30.3
2017-05-28T12:17:46.060Z,30.4
2017-05-28T12:18:48.714Z,30.4
2017-05-28T12:19:51.443Z,30.6
2017-05-28T12:20:54.314Z,30.4
2017-05-28T12:21:57.145Z,30.5
2017-05-28T12:22:59.782Z,30.5
2017-05-28T12:24:02.917Z,30.5
2017-05-28T12:25:12.196Z,30.6
2017-05-28T12:26:16.874Z,30.4
2017-05-28T12:27:22.272Z,30.4
2017-05-28T12:28:25.045Z,30.3
2017-05-28T12:29:28.359Z,30.3
2017-05-28T12:30:31.834Z,30.3
2017-05-28T12:31:35.385Z,30.3
2017-05-28T12:32:39.381Z,30.3
2017-05-28T12:33:42.754Z,30.2
2017-05-28T12:34:46.188Z,30.3
2017-05-28T12:35:48.844Z,30.6
2017-05-28T12:36:52.738Z,30.9
2017-05-28T12:37:56.083Z,30.6
2017-05-28T12:38:59.571Z,30.6
2017-05-28T12:41:14.367Z,30
2017-05-28T12:42:17.677Z,29.8
2017-05-28T12:43:22.098Z,29.8
2017-05-28T12:44:25.550Z,29.7
2017-05-28T12:45:29.674Z,29.5
2017-05-28T12:46:34.021Z,29.2
2017-05-28T12:47:36.697Z,29.5
2017-05-28T12:48:39.462Z,29.7
2017-05-28T12:49:42.133Z,29.6
2017-05-28T12:50:45.026Z,29.6
2017-05-28T12:51:49.362Z,29.3
2017-05-28T12:52:53.229Z,29.4
2017-05-28T12:53:55.843Z,28.4
2017-05-28T12:54:59.506Z,28.8
2017-05-28T12:56:03.701Z,28.9
2017-05-28T12:57:08.544Z,28.9
2017-05-28T12:58:11.931Z,28.1
2017-05-28T12:59:15.279Z,28.1
2017-05-28T13:01:39.493Z,28
2017-05-28T13:02:43.618Z,28
2017-05-28T13:03:46.383Z,28.3
2017-05-28T13:04:49.611Z,28.7
2017-05-28T13:05:52.942Z,28.7
2017-05-28T13:06:57.058Z,28.7
2017-05-28T13:08:00.287Z,28.5
2017-05-28T13:09:05.288Z,28.7
2017-05-28T13:10:12.181Z,28.6
2017-05-28T13:11:15.108Z,28.6
2017-05-28T13:12:19.580Z,28.5
2017-05-28T13:13:23.814Z,28.4
2017-05-28T13:14:27.216Z,28.3
2017-05-28T13:15:32.194Z,27.4
2017-05-28T13:16:35.920Z,27.6
2017-05-28T13:17:39.865Z,28.3
2017-05-28T13:18:43.630Z,28.4
2017-05-28T13:19:47.031Z,28.3
2017-05-28T13:20:50.672Z,27.9
2017-05-28T13:21:53.530Z,27.9
2017-05-28T13:22:57.238Z,28.1
2017-05-28T13:23:59.886Z,28.4
2017-05-28T13:25:11.111Z,28.4
2017-05-28T13:26:16.299Z,28.5
2017-05-28T13:27:19.638Z,28.8
2017-05-28T13:28:25.770Z,28.5
2017-05-28T13:29:30.495Z,28.8
2017-05-28T13:30:34.739Z,28.6
2017-05-28T13:31:38.856Z,28.4
2017-05-28T13:32:43.972Z,28.7
2017-05-28T13:33:47.490Z,28.8
2017-05-28T13:34:51.846Z,28
2017-05-28T13:35:57.140Z,28
2017-05-28T13:37:00.618Z,28.3
2017-05-28T13:38:06.715Z,28.3
2017-05-28T13:39:14.174Z,28.6
2017-05-28T13:40:21.119Z,28.5
2017-05-28T13:41:23.931Z,28.7
2017-05-28T13:42:26.771Z,28.5
2017-05-28T13:43:31.458Z,27.9
2017-05-28T13:44:34.207Z,27.5
2017-05-28T13:45:38.395Z,27.7
2017-05-28T13:46:42.599Z,28
2017-05-28T13:47:45.529Z,28.4
2017-05-28T13:48:48.297Z,28.1
2017-05-28T13:49:51.901Z,27.7
2017-05-28T13:50:55.765Z,27.4
2017-05-28T13:51:59.394Z,27.3
2017-05-28T13:53:02.776Z,27.4
2017-05-28T13:54:10.273Z,27.6
2017-05-28T13:55:23.519Z,28.3
2017-05-28T13:56:26.995Z,27.6
2017-05-28T13:57:29.926Z,27.1
2017-05-28T13:58:34.054Z,27.1
2017-05-28T13:59:38.942Z,27.1
2017-05-28T14:00:43.140Z,27.7
2017-05-28T14:01:51.518Z,27.9
2017-05-28T14:02:54.179Z,28.2
2017-05-28T14:03:57.450Z,28.1
2017-05-28T14:05:00.154Z,27.8
2017-05-28T14:07:10.966Z,27.5
2017-05-28T14:08:15.434Z,27.5
2017-05-28T14:09:19.072Z,27.4
2017-05-28T14:10:22.044Z,27.6
2017-05-28T14:11:25.770Z,27.8
2017-05-28T14:12:30.611Z,28